createdAt,value
2023-04-28T00:00:58.949Z,3.63
2023-04-28T00:03:28.261Z,3.85
2023-04-28T00:05:57.667Z,3.38
2023-04-28T00:08:27.248Z,3.58
2023-04-28T00:10:56.704Z,3.50
2023-04-28T00:13:24.964Z,3.40
2023-04-28T00:15:53.706Z,3.70
2023-04-28T00:18:22.123Z,3.47
2023-04-28T00:20:50.204Z,3.15
2023-04-28T00:23:18.226Z,3.40
2023-04-28T00:25:46.267Z,3.05
2023-04-28T00:28:30.586Z,3.40
2023-04-28T00:31:01.968Z,4.43
2023-04-28T00:33:30.033Z,3.95
2023-04-28T00:36:01.855Z,3.35
2023-04-28T00:40:57.832Z,3.47
2023-04-28T00:43:27.286Z,2.97
2023-04-28T00:45:55.718Z,3.22
2023-04-28T00:48:24.397Z,3.22
2023-04-28T00:50:53.326Z,3.30
2023-04-28T00:53:21.432Z,3.38
2023-04-28T00:55:50.290Z,3.00
2023-04-28T00:58:18.361Z,3.17
2023-04-28T01:00:47.830Z,2.83
2023-04-28T01:03:16.157Z,3.30
2023-04-28T01:05:44.414Z,3.35
2023-04-28T01:08:12.629Z,3.63
2023-04-28T01:10:45.244Z,3.33
2023-04-28T01:13:13.440Z,2.90
2023-04-28T01:15:41.817Z,2.63
2023-04-28T01:18:11.366Z,3.08
2023-04-28T01:20:39.432Z,2.97
2023-04-28T01:23:12.478Z,2.90
2023-04-28T01:25:42.197Z,2.80
2023-04-28T01:28:10.845Z,3.58
2023-04-28T01:30:39.233Z,2.50
2023-04-28T01:33:07.421Z,2.65
2023-04-28T01:35:35.546Z,3.13
2023-04-28T01:38:03.750Z,2.70
2023-04-28T01:40:32.882Z,3.03
2023-04-28T01:43:02.304Z,2.78
2023-04-28T01:45:30.475Z,4.38
2023-04-28T01:47:58.590Z,5.05
2023-04-28T01:50:26.748Z,3.90
2023-04-28T01:52:54.806Z,3.17
2023-04-28T01:55:22.872Z,2.90
2023-04-28T01:57:51.126Z,3.05
2023-04-28T02:00:21.179Z,3.30
2023-04-28T02:02:49.285Z,3.17
2023-04-28T02:05:17.577Z,3.33
2023-04-28T02:07:46.637Z,3.53
2023-04-28T02:10:14.921Z,2.95
2023-04-28T02:12:43.007Z,3.30
2023-04-28T02:15:11.768Z,3.70
2023-04-28T02:17:41.501Z,2.92
2023-04-28T02:20:10.729Z,3.38
2023-04-28T02:22:38.817Z,3.30
2023-04-28T02:25:07.695Z,3.50
2023-04-28T02:27:36.658Z,3.50
2023-04-28T02:30:05.467Z,3.30
2023-04-28T02:32:33.908Z,3.15
2023-04-28T02:35:03.398Z,3.53
2023-04-28T02:37:31.492Z,3.22
2023-04-28T02:39:59.569Z,3.47
2023-04-28T02:42:27.590Z,2.80
2023-04-28T02:44:55.632Z,3.30
2023-04-28T02:47:23.691Z,3.00
2023-04-28T02:49:51.751Z,3.38
2023-04-28T02:52:21.167Z,4.30
2023-04-28T02:54:54.269Z,3.40
2023-04-28T02:57:22.336Z,3.70
2023-04-28T02:59:50.392Z,3.40
2023-04-28T03:02:20.630Z,3.42
2023-04-28T03:04:48.745Z,3.60
2023-04-28T03:07:16.961Z,3.50
2023-04-28T03:09:47.142Z,3.67
2023-04-28T03:12:15.280Z,3.65
2023-04-28T03:14:43.328Z,3.08
2023-04-28T03:17:11.506Z,3.78
2023-04-28T03:19:39.579Z,3.60
2023-04-28T03:22:07.647Z,3.53
2023-04-28T03:24:35.695Z,3.70
2023-04-28T03:27:05.848Z,3.53
2023-04-28T03:29:33.875Z,3.25
2023-04-28T03:32:02.244Z,8.93
2023-04-28T03:34:30.509Z,7.43
2023-04-28T03:36:58.557Z,7.07
2023-04-28T03:39:26.680Z,4.95
2023-04-28T03:41:54.836Z,3.85
2023-04-28T03:44:24.322Z,4.30
2023-04-28T03:46:52.349Z,3.58
2023-04-28T03:49:20.474Z,3.85
2023-04-28T03:51:50.048Z,4.13
2023-04-28T03:54:18.319Z,3.38
2023-04-28T03:56:47.176Z,4.70
2023-04-28T03:59:15.228Z,4.40
2023-04-28T04:01:44.649Z,4.10
2023-04-28T04:04:13.271Z,3.70
2023-04-28T04:06:41.551Z,4.32
2023-04-28T04:09:09.650Z,4.40
2023-04-28T04:11:37.668Z,4.60
2023-04-28T04:14:06.223Z,5.00
2023-04-28T04:16:34.327Z,5.03
2023-04-28T04:19:03.863Z,4.65
2023-04-28T04:21:32.944Z,5.15
2023-04-28T04:24:01.352Z,5.25
2023-04-28T04:26:29.457Z,4.88
2023-04-28T04:28:57.480Z,4.40
2023-04-28T04:31:25.672Z,4.38
2023-04-28T04:33:53.806Z,4.70
2023-04-28T04:36:23.436Z,4.75
2023-04-28T04:38:53.239Z,4.75
2023-04-28T04:41:22.706Z,5.13
2023-04-28T04:43:50.732Z,4.50
2023-04-28T04:46:18.786Z,4.68
2023-04-28T04:48:47.165Z,4.20
2023-04-28T04:51:15.245Z,4.70
2023-04-28T04:53:45.071Z,4.60
2023-04-28T04:56:13.138Z,5.13
2023-04-28T04:58:45.348Z,4.63
2023-04-28T05:01:13.428Z,4.43
2023-04-28T05:03:41.540Z,5.07
2023-04-28T05:06:09.729Z,5.15
2023-04-28T05:08:37.786Z,4.78
2023-04-28T05:11:07.273Z,4.88
2023-04-28T05:13:35.317Z,4.88
2023-04-28T05:16:03.436Z,4.55
2023-04-28T05:18:31.633Z,4.50
2023-04-28T05:20:59.718Z,5.05
2023-04-28T05:23:27.824Z,4.88
2023-04-28T05:25:56.127Z,5.80
2023-04-28T05:28:25.678Z,5.50
2023-04-28T05:30:53.730Z,5.30
2023-04-28T05:33:22.478Z,5.40
2023-04-28T05:35:50.669Z,5.03
2023-04-28T05:38:18.723Z,5.22
2023-04-28T05:40:46.818Z,5.72
2023-04-28T05:43:14.896Z,5.78
2023-04-28T05:45:44.419Z,6.47
2023-04-28T05:48:12.597Z,6.05
2023-04-28T05:50:40.703Z,5.05
2023-04-28T05:53:09.036Z,5.18
2023-04-28T05:55:37.364Z,5.68
2023-04-28T05:58:05.665Z,5.47
2023-04-28T06:00:34.372Z,4.22
2023-04-28T06:03:04.044Z,5.07
2023-04-28T06:05:32.691Z,5.38
2023-04-28T06:08:01.010Z,5.80
2023-04-28T06:10:29.081Z,4.43
2023-04-28T06:12:57.136Z,5.30
2023-04-28T06:15:25.352Z,6.10
2023-04-28T06:17:53.934Z,5.65
2023-04-28T06:20:24.533Z,5.25
2023-04-28T06:22:52.599Z,4.60
2023-04-28T06:25:20.640Z,6.32
2023-04-28T06:27:48.782Z,5.25
2023-04-28T06:30:20.125Z,5.38
2023-04-28T06:32:48.254Z,5.70
2023-04-28T06:35:17.487Z,5.18
2023-04-28T06:37:47.203Z,5.38
2023-04-28T06:40:15.238Z,5.90
2023-04-28T06:42:43.341Z,6.40
2023-04-28T06:45:11.987Z,5.93
2023-04-28T06:47:40.768Z,5.53
2023-04-28T06:50:09.669Z,5.43
2023-04-28T06:52:39.500Z,5.93
2023-04-28T06:55:10.940Z,6.20
2023-04-28T06:57:39.051Z,5.68
2023-04-28T07:00:08.823Z,5.97
2023-04-28T07:02:37.825Z,5.88
2023-04-28T07:05:06.718Z,6.00
2023-04-28T07:07:34.731Z,5.78
2023-04-28T07:10:02.872Z,5.97
2023-04-28T07:12:32.304Z,5.40
2023-04-28T07:15:00.443Z,4.80
2023-04-28T07:17:28.549Z,5.47
2023-04-28T07:19:56.695Z,4.43
2023-04-28T07:22:24.741Z,5.30
2023-04-28T07:24:53.659Z,4.78
2023-04-28T07:27:21.740Z,5.28
2023-04-28T07:29:51.173Z,5.35
2023-04-28T07:32:19.449Z,5.05
2023-04-28T07:34:47.654Z,5.22
2023-04-28T07:37:15.828Z,4.40
2023-04-28T07:39:43.907Z,4.90
2023-04-28T07:42:12.230Z,5.07
2023-04-28T07:44:40.268Z,5.10
2023-04-28T07:47:10.623Z,5.80
2023-04-28T07:49:38.676Z,6.95
2023-04-28T07:52:07.034Z,5.97
2023-04-28T07:54:36.999Z,5.28
2023-04-28T07:57:06.317Z,5.10
2023-04-28T07:59:34.979Z,5.20
2023-04-28T08:02:03.143Z,5.32
2023-04-28T08:04:33.999Z,6.65
2023-04-28T08:07:02.719Z,17.50
2023-04-28T08:09:30.912Z,13.15
2023-04-28T08:12:00.822Z,6.35
2023-04-28T08:14:29.493Z,7.72
2023-04-28T08:16:58.817Z,29.50
2023-04-28T08:19:27.217Z,40.38
2023-04-28T08:21:56.653Z,12.38
2023-04-28T08:24:24.718Z,6.95
2023-04-28T08:26:52.784Z,10.95
2023-04-28T08:29:20.822Z,14.65
2023-04-28T08:31:48.917Z,14.65
2023-04-28T08:34:17.171Z,6.50
2023-04-28T08:36:45.249Z,5.97
2023-04-28T08:39:14.657Z,5.28
2023-04-28T08:41:42.873Z,8.23
2023-04-28T08:44:11.851Z,7.80
2023-04-28T08:46:41.942Z,5.30
2023-04-28T08:49:15.807Z,5.28
2023-04-28T08:51:47.689Z,11.30
2023-04-28T08:56:57.070Z,8.43
2023-04-28T08:59:25.265Z,8.25
2023-04-28T09:01:53.464Z,7.85
2023-04-28T09:04:22.447Z,12.38
2023-04-28T09:06:50.725Z,10.65
2023-04-28T09:09:25.197Z,9.93
2023-04-28T09:11:55.492Z,6.65
2023-04-28T09:14:24.580Z,6.65
2023-04-28T09:16:53.510Z,8.88
2023-04-28T09:19:21.952Z,17.95
2023-04-28T09:21:52.842Z,9.70
2023-04-28T09:24:36.698Z,7.95
2023-04-28T09:27:07.570Z,10.98
2023-04-28T09:29:35.795Z,9.90
2023-04-28T09:32:15.393Z,5.93
2023-04-28T09:34:47.497Z,9.43
2023-04-28T09:42:34.578Z,7.50
2023-04-28T09:45:03.419Z,8.75
2023-04-28T09:47:33.457Z,9.02
2023-04-28T09:50:02.721Z,6.43
2023-04-28T09:52:30.859Z,7.40
2023-04-28T09:55:02.379Z,8.40
2023-04-28T09:57:32.843Z,6.40
2023-04-28T10:00:01.709Z,8.82
2023-04-28T10:05:02.481Z,6.50
2023-04-28T10:07:35.722Z,9.95
2023-04-28T10:10:05.604Z,10.75
2023-04-28T10:12:34.715Z,9.32
2023-04-28T10:15:03.669Z,9.95
2023-04-28T10:17:32.981Z,8.00
2023-04-28T10:20:01.807Z,7.95
2023-04-28T10:22:43.491Z,15.30
2023-04-28T10:25:26.228Z,12.70
2023-04-28T10:27:54.811Z,11.63
2023-04-28T10:30:27.957Z,10.98
2023-04-28T10:33:26.927Z,10.15
2023-04-28T10:35:55.638Z,8.27
2023-04-28T10:38:23.742Z,11.70
2023-04-28T10:40:53.824Z,11.27
2023-04-28T10:43:39.564Z,10.35
2023-04-28T10:46:11.672Z,13.13
2023-04-28T10:51:33.093Z,16.95
2023-04-28T10:54:18.143Z,13.90
2023-04-28T10:57:22.880Z,12.65
2023-04-28T10:59:51.681Z,10.75
2023-04-28T11:02:50.241Z,10.13
2023-04-28T11:05:20.170Z,13.30
2023-04-28T11:08:32.636Z,11.68
2023-04-28T11:11:25.676Z,12.95
2023-04-28T11:13:56.014Z,9.35
2023-04-28T11:16:26.606Z,17.90
2023-04-28T11:18:57.865Z,26.65
2023-04-28T11:21:28.256Z,15.10
2023-04-28T11:23:56.551Z,18.83
2023-04-28T11:26:24.748Z,12.95
2023-04-28T11:28:55.695Z,10.07
2023-04-28T11:31:25.258Z,11.75
2023-04-28T11:33:56.543Z,12.35
2023-04-28T11:36:33.563Z,9.00
2023-04-28T11:39:02.042Z,10.32
2023-04-28T11:41:30.075Z,9.57
2023-04-28T11:43:59.468Z,10.07
2023-04-28T11:46:27.736Z,11.60
2023-04-28T11:49:04.517Z,13.35
2023-04-28T11:51:34.887Z,9.35
2023-04-28T11:54:03.717Z,16.63
2023-04-28T11:56:32.187Z,14.88
2023-04-28T11:59:09.694Z,15.65
2023-04-28T12:01:47.792Z,13.77
2023-04-28T12:04:16.599Z,13.60
2023-04-28T12:06:44.761Z,12.77
2023-04-28T12:09:21.498Z,11.88
2023-04-28T12:12:02.361Z,10.23
2023-04-28T12:14:35.237Z,12.05
2023-04-28T12:17:04.105Z,11.93
2023-04-28T12:19:44.284Z,12.20
2023-04-28T12:22:12.464Z,13.50
2023-04-28T12:24:40.999Z,14.05
2023-04-28T12:27:21.690Z,10.95
2023-04-28T12:29:51.582Z,11.32
2023-04-28T12:32:20.358Z,12.93
2023-04-28T12:34:50.650Z,11.10
2023-04-28T12:37:18.855Z,13.27
2023-04-28T12:39:47.114Z,12.98
2023-04-28T12:42:15.369Z,12.70
2023-04-28T12:44:43.413Z,14.48
2023-04-28T12:47:12.827Z,12.90
2023-04-28T12:49:41.571Z,13.93
2023-04-28T12:52:09.800Z,14.88
2023-04-28T12:54:38.191Z,12.80
2023-04-28T12:57:06.519Z,13.40
2023-04-28T12:59:34.754Z,14.77
2023-04-28T13:02:03.381Z,14.25
2023-04-28T13:04:33.383Z,17.10
2023-04-28T13:07:01.671Z,21.38
2023-04-28T13:09:30.138Z,45.35
2023-04-28T13:11:58.732Z,38.67
2023-04-28T13:14:27.952Z,27.30
2023-04-28T13:16:56.120Z,17.05
2023-04-28T13:19:24.234Z,28.52
2023-04-28T13:21:53.726Z,24.38
2023-04-28T13:24:21.740Z,16.63
2023-04-28T13:26:49.801Z,29.38
2023-04-28T13:29:18.202Z,24.75
2023-04-28T13:31:46.441Z,22.70
2023-04-28T13:34:16.372Z,20.33
2023-04-28T13:36:44.927Z,16.17
2023-04-28T13:39:14.961Z,18.73
2023-04-28T13:41:43.194Z,24.95
2023-04-28T13:44:11.363Z,21.23
2023-04-28T13:46:39.402Z,18.17
2023-04-28T13:49:07.613Z,16.13
2023-04-28T13:51:35.660Z,16.98
2023-04-28T13:54:04.723Z,17.02
2023-04-28T13:56:34.229Z,15.57
2023-04-28T13:59:02.389Z,16.85
2023-04-28T14:01:31.214Z,15.10
2023-04-28T14:03:59.581Z,17.88
2023-04-28T14:06:28.882Z,16.45
2023-04-28T14:08:57.011Z,16.05
2023-04-28T14:11:25.137Z,16.15
2023-04-28T14:13:54.548Z,16.77
2023-04-28T14:16:22.734Z,15.27
2023-04-28T14:18:50.873Z,14.48
2023-04-28T14:21:18.907Z,15.20
2023-04-28T14:23:47.130Z,16.05
2023-04-28T14:26:15.168Z,15.05
2023-04-28T14:28:43.224Z,15.20
2023-04-28T14:31:13.643Z,16.00
2023-04-28T14:33:41.953Z,15.70
2023-04-28T14:36:10.221Z,16.35
2023-04-28T14:38:40.089Z,17.70
2023-04-28T14:41:08.387Z,17.75
2023-04-28T14:43:36.505Z,18.13
2023-04-28T14:46:05.750Z,19.92
2023-04-28T14:48:36.358Z,20.38
2023-04-28T14:51:04.872Z,18.83
2023-04-28T14:53:33.083Z,16.67
2023-04-28T14:56:11.248Z,17.42
2023-04-28T14:58:45.933Z,16.63
2023-04-28T15:01:14.331Z,14.90
2023-04-28T15:03:47.415Z,15.98
2023-04-28T15:06:15.616Z,16.08
2023-04-28T15:08:43.669Z,16.35
2023-04-28T15:11:11.845Z,15.90
2023-04-28T15:13:42.385Z,13.45
2023-04-28T15:16:11.352Z,15.23
2023-04-28T15:18:39.552Z,13.63
2023-04-28T15:21:09.488Z,14.07
2023-04-28T15:23:37.548Z,13.85
2023-04-28T15:26:05.769Z,12.38
2023-04-28T15:28:34.581Z,12.85
2023-04-28T15:31:02.990Z,12.00
2023-04-28T15:33:31.660Z,13.25
2023-04-28T15:35:59.771Z,12.15
2023-04-28T15:38:31.273Z,11.43
2023-04-28T15:40:59.312Z,11.45
2023-04-28T15:43:27.345Z,10.68
2023-04-28T15:45:55.575Z,10.77
2023-04-28T15:48:24.050Z,10.07
2023-04-28T15:50:52.098Z,10.07
2023-04-28T15:53:20.715Z,10.48
2023-04-28T15:55:50.147Z,10.75
2023-04-28T15:58:18.202Z,11.18
2023-04-28T16:00:47.057Z,10.85
2023-04-28T16:03:15.278Z,14.10
2023-04-28T16:05:43.503Z,10.63
2023-04-28T16:08:11.598Z,9.18
2023-04-28T16:10:41.253Z,9.05
2023-04-28T16:13:12.273Z,10.73
2023-04-28T16:15:41.790Z,9.18
2023-04-28T16:18:10.129Z,7.50
2023-04-28T16:20:38.397Z,7.25
2023-04-28T16:23:07.239Z,7.80
2023-04-28T16:25:35.370Z,7.93
2023-04-28T16:28:03.518Z,8.23
2023-04-28T16:30:34.093Z,8.02
2023-04-28T16:33:02.216Z,8.18
2023-04-28T16:35:30.376Z,7.80
2023-04-28T16:37:58.417Z,58.38
2023-04-28T16:40:26.631Z,20.02
2023-04-28T16:42:54.666Z,15.65
2023-04-28T16:45:23.584Z,40.28
2023-04-28T16:47:53.111Z,71.78
2023-04-28T16:50:21.209Z,75.93
2023-04-28T16:52:49.555Z,83.53
2023-04-28T16:55:18.861Z,51.08
2023-04-28T16:57:47.007Z,21.75
2023-04-28T17:00:16.190Z,12.05
2023-04-28T17:02:44.392Z,9.30
2023-04-28T17:05:14.059Z,8.50
2023-04-28T17:07:42.158Z,7.40
2023-04-28T17:10:11.047Z,9.05
2023-04-28T17:12:39.731Z,11.43
2023-04-28T17:15:09.459Z,10.32
2023-04-28T17:17:37.848Z,9.68
2023-04-28T17:20:07.011Z,6.25
2023-04-28T17:22:36.483Z,6.15
2023-04-28T17:25:05.574Z,8.85
2023-04-28T17:27:33.653Z,8.27
2023-04-28T17:30:01.702Z,34.63
2023-04-28T17:32:32.848Z,18.58
2023-04-28T17:35:01.198Z,9.05
2023-04-28T17:37:29.266Z,5.43
2023-04-28T17:39:58.963Z,5.82
2023-04-28T17:42:26.999Z,5.20
2023-04-28T17:44:55.040Z,6.03
2023-04-28T17:47:23.116Z,5.15
2023-04-28T17:49:51.756Z,5.85
2023-04-28T17:52:19.902Z,5.72
2023-04-28T17:54:48.384Z,6.47
2023-04-28T17:57:18.456Z,5.63
2023-04-28T17:59:49.797Z,6.45
2023-04-28T18:02:19.815Z,13.70
2023-04-28T18:04:47.944Z,7.80
2023-04-28T18:07:16.400Z,8.00
2023-04-28T18:09:44.564Z,9.80
2023-04-28T18:12:12.979Z,8.35
2023-04-28T18:14:44.357Z,37.40
2023-04-28T18:17:12.802Z,38.17
2023-04-28T18:19:40.849Z,27.02
2023-04-28T18:22:09.021Z,33.83
2023-04-28T18:24:37.494Z,12.88
2023-04-28T18:27:05.593Z,8.95
2023-04-28T18:29:33.677Z,8.15
2023-04-28T18:32:03.184Z,7.13
2023-04-28T18:34:31.263Z,6.85
2023-04-28T18:36:59.354Z,6.60
2023-04-28T18:39:27.457Z,7.90
2023-04-28T18:41:55.522Z,13.73
2023-04-28T18:44:24.073Z,14.02
2023-04-28T18:46:52.602Z,11.50
2023-04-28T18:49:22.815Z,10.75
2023-04-28T18:51:50.876Z,8.50
2023-04-28T18:54:18.929Z,7.22
2023-04-28T18:56:48.012Z,12.07
2023-04-28T18:59:16.133Z,8.45
2023-04-28T19:01:44.175Z,6.03
2023-04-28T19:04:12.777Z,5.78
2023-04-28T19:06:43.986Z,6.00
2023-04-28T19:09:12.050Z,5.95
2023-04-28T19:11:40.099Z,6.10
2023-04-28T19:14:08.182Z,5.75
2023-04-28T19:16:36.696Z,5.93
2023-04-28T19:19:04.997Z,5.93
2023-04-28T19:21:35.841Z,5.50
2023-04-28T19:24:05.545Z,6.28
2023-04-28T19:26:33.636Z,6.60
2023-04-28T19:29:02.236Z,5.13
2023-04-28T19:31:30.416Z,15.85
2023-04-28T19:33:59.054Z,14.35
2023-04-28T19:36:28.286Z,11.57
2023-04-28T19:38:56.317Z,9.32
2023-04-28T19:41:25.811Z,11.50
2023-04-28T19:43:53.844Z,10.05
2023-04-28T19:46:21.948Z,7.63
2023-04-28T19:48:50.266Z,6.35
2023-04-28T19:51:18.334Z,5.75
2023-04-28T19:53:47.138Z,4.80
2023-04-28T19:56:15.228Z,4.60
2023-04-28T19:58:44.634Z,3.95
2023-04-28T20:01:12.690Z,4.80
2023-04-28T20:03:40.896Z,5.57
2023-04-28T20:06:09.401Z,4.55
2023-04-28T20:08:37.493Z,4.07
2023-04-28T20:11:06.771Z,4.60
2023-04-28T20:13:34.845Z,3.80
2023-04-28T20:16:04.490Z,3.15
2023-04-28T20:18:32.581Z,3.00
2023-04-28T20:21:00.622Z,2.90
2023-04-28T20:23:29.326Z,2.20
2023-04-28T20:25:57.499Z,2.33
2023-04-28T20:28:25.591Z,3.05
2023-04-28T20:30:53.780Z,2.60
2023-04-28T20:33:23.211Z,3.00
2023-04-28T20:35:51.255Z,3.65
2023-04-28T20:38:19.847Z,2.63
2023-04-28T20:40:48.052Z,2.22
2023-04-28T20:43:16.103Z,2.63
2023-04-28T20:45:44.474Z,2.40
2023-04-28T20:48:12.970Z,3.03
2023-04-28T20:50:43.763Z,2.60
2023-04-28T20:53:12.239Z,2.65
2023-04-28T20:55:40.289Z,2.70
2023-04-28T20:58:08.534Z,3.78
2023-04-28T21:00:40.207Z,3.72
2023-04-28T21:03:15.049Z,3.88
2023-04-28T21:05:45.749Z,3.42
2023-04-28T21:08:14.326Z,3.47
2023-04-28T21:10:42.367Z,3.42
2023-04-28T21:13:10.632Z,3.20
2023-04-28T21:15:39.291Z,3.10
2023-04-28T21:18:07.594Z,2.90
2023-04-28T21:20:35.756Z,2.30
2023-04-28T21:23:05.220Z,2.60
2023-04-28T21:25:33.298Z,2.78
2023-04-28T21:28:01.893Z,2.90
2023-04-28T21:30:30.174Z,2.75
2023-04-28T21:32:58.451Z,2.40
2023-04-28T21:35:26.673Z,2.50
2023-04-28T21:37:54.789Z,2.40
2023-04-28T21:40:24.594Z,2.38
2023-04-28T21:42:52.645Z,2.58
2023-04-28T21:45:20.749Z,3.15
2023-04-28T21:47:48.832Z,4.15
2023-04-28T21:50:17.067Z,2.95
2023-04-28T21:52:45.259Z,2.75
2023-04-28T21:55:13.317Z,3.22
2023-04-28T21:57:42.740Z,2.70
2023-04-28T22:00:12.762Z,2.63
2023-04-28T22:02:41.622Z,2.83
2023-04-28T22:05:10.992Z,2.60
2023-04-28T22:07:39.122Z,2.38
2023-04-28T22:10:08.791Z,2.40
2023-04-28T22:12:36.877Z,2.50
2023-04-28T22:15:07.301Z,2.30
2023-04-28T22:17:35.372Z,2.53
2023-04-28T22:20:03.412Z,2.50
2023-04-28T22:22:31.786Z,2.35
2023-04-28T22:25:00.257Z,2.70
2023-04-28T22:27:30.368Z,2.28
2023-04-28T22:29:58.811Z,2.38
2023-04-28T22:32:29.193Z,2.40
2023-04-28T22:34:57.307Z,2.38
2023-04-28T22:37:25.397Z,3.08
2023-04-28T22:39:53.669Z,2.80
2023-04-28T22:42:21.775Z,1.83
2023-04-28T22:44:49.850Z,2.22
2023-04-28T22:47:18.252Z,2.63
2023-04-28T22:49:47.895Z,2.60
2023-04-28T22:52:18.212Z,4.13
2023-04-28T22:54:46.218Z,6.35
2023-04-28T22:57:14.289Z,4.70
2023-04-28T22:59:42.394Z,4.18
2023-04-28T23:02:13.272Z,3.22
2023-04-28T23:04:41.705Z,3.15
2023-04-28T23:07:11.218Z,2.75
2023-04-28T23:09:39.294Z,2.35
2023-04-28T23:12:07.576Z,2.45
2023-04-28T23:14:35.708Z,2.58
2023-04-28T23:17:03.739Z,3.00
2023-04-28T23:19:31.814Z,2.50
2023-04-28T23:21:59.869Z,2.55
2023-04-28T23:24:29.394Z,2.00
2023-04-28T23:26:57.595Z,2.30
2023-04-28T23:29:25.661Z,2.38
2023-04-28T23:31:54.923Z,2.30
2023-04-28T23:34:23.344Z,3.20
2023-04-28T23:36:51.906Z,3.25
2023-04-28T23:39:19.983Z,3.38
2023-04-28T23:41:49.381Z,2.70
2023-04-28T23:44:17.462Z,2.67
2023-04-28T23:46:45.654Z,2.90
2023-04-28T23:49:13.743Z,2.80
2023-04-28T23:51:41.945Z,2.55
2023-04-28T23:54:10.176Z,2.60
2023-04-28T23:56:38.217Z,2.25
2023-04-28T23:59:08.351Z,2.60
